Mullan, ID

12:05 PM PDT on September 16, 2014 (GMT -0700)
Mullan Pass | Change Station
CLOSE
Current Station
Airport
Location: Mullan Pass,
Elevation: 6073 ft
Nearby Weather Stations

Elev 6073 ft 47.45 °N, 115.67 °W | Updated 12 minutes ago

Partly Cloudy
Partly Cloudy
68 °F
Feels Like 68 °F
N
4
Wind Variable Wind from Variable

Today
High -- | Low -- °F
--% Chance of Precip.
Yesterday
High -- | Low -- °F
Precip. -- in
6:21 AM 6:52 PM
Last Quarter, 43% visible
Pressure 29.81 in
Visibility 10.0 miles
Clouds Mostly Cloudy 11000 ft
Dew Point 36 °F
Humidity 31%
Rainfall 0.00 in
Snow Depth 0 in , 0 in , 1 in
UV 4 out of 12
Pollen 7.20 out of 12
Air Quality Not available.
Flu Activity Not available.
METAR KMLP 161853Z AUTO VRB03KT 10SM BKN110 20/02 A3011 RMK AO2 SLP092 T02000022

More Conditions Fewer Conditions

Pressure 29.81 in
Visibility 10.0 miles
Clouds Mostly Cloudy 11000 ft
Dew Point 36 °F
Humidity 31%
Rainfall 0.00 in
Snow Depth 0 in , 0 in , 1 in
UV 4 out of 12
Pollen 7.20 out of 12
Air Quality Not available.
Flu Activity Not available.
METAR KMLP 161853Z AUTO VRB03KT 10SM BKN110 20/02 A3011 RMK AO2 SLP092 T02000022

More Conditions Fewer Conditions

10-Day Weather Forecast

Almanac

Astronomy

Sep. 16, 2014 Rise Set
Actual Time 6:21 AM PDT 6:52 PM PDT
Civil Twilight 5:50 AM PDT 7:23 PM PDT
Nautical Twilight 5:14 AM PDT 7:59 PM PDT
Astronomical Twilight 4:35 AM PDT 8:37 PM PDT
Moon No Moon Rise 2:37 PM PDT
Length of Visible Light 13h 32m
Length of Day
12h 30m
Tomorrow will be 3m 22s shorter.
Last Quarter, 43% of the Moon is Illuminated
Today
Last Quarter
Sep 24
New
Oct 1
First Quarter
Oct 8
Full
Oct 15
Last Quarter

Today's Extremes

State Highs State Lows

Community

WunderPhotos

Upload Photos

1,753,860 photos uploaded!

WunderBlogs® & News

Nearby

Snow Depth

Station Depth Elevation
Lost-Wood Divide 0 in 7900 ft
Mud Flat 0 in 5730 ft
Savage Pass 1 in 6170 ft
Wildhorse Divide 0 in 6490 ft
Bear Basin 0 in 5350 ft

Earthquake Activity

City Distance Mag. Time & Date
No recent earthquake activity has been reported nearby.
Minimum magnitude displayed is 2.5.

Coastal Water Temperatures

Place Temperature
No Stations Reporting

Nearby Weather Stations